sensor_id;sensor_type;location;lat;lon;timestamp;P1;P2;P0
76043;PMS7003;64740;34.694;33.088;2023-11-21T06:46:29;6.8;5.6;3.4
76043;PMS7003;64740;34.694;33.088;2023-11-21T06:51:51;4;3.2;1.8
76043;PMS7003;64740;34.694;33.088;2023-11-21T06:56:49;4.3;3.3;1.9
76043;PMS7003;64740;34.694;33.088;2023-11-21T07:01:35;4.5;3.7;2.2
76043;PMS7003;64740;34.694;33.088;2023-11-21T07:06:33;5.9;4.4;2.2
76043;PMS7003;64740;34.694;33.088;2023-11-21T07:11:25;4.4;3.7;2.1
76043;PMS7003;64740;34.694;33.088;2023-11-21T07:16:15;4.6;3.6;2.2
76043;PMS7003;64740;34.694;33.088;2023-11-21T07:21:51;5.2;3.9;2.1
76043;PMS7003;64740;34.694;33.088;2023-11-21T07:26:17;4.2;3.8;2.4
76043;PMS7003;64740;34.694;33.088;2023-11-21T07:31:51;4.1;3.5;1.8
76043;PMS7003;64740;34.694;33.088;2023-11-21T07:36:31;3.2;2.8;1.7
76043;PMS7003;64740;34.694;33.088;2023-11-21T07:41:51;3.6;2.9;1.4
76043;PMS7003;64740;34.694;33.088;2023-11-21T07:46:39;3.6;2.7;1.5
76043;PMS7003;64740;34.694;33.088;2023-11-21T07:51:51;3;2.6;1.4
76043;PMS7003;64740;34.694;33.088;2023-11-21T07:56:49;3.8;2.7;1.4
76043;PMS7003;64740;34.694;33.088;2023-11-21T08:01:25;3.6;2.8;1.4
76043;PMS7003;64740;34.694;33.088;2023-11-21T08:06:23;3.2;2.6;1.2
76043;PMS7003;64740;34.694;33.088;2023-11-21T08:11:29;3;2.4;1
76043;PMS7003;64740;34.694;33.088;2023-11-21T08:16:33;3.2;2.2;1.3
76043;PMS7003;64740;34.694;33.088;2023-11-21T08:21:41;3;2.3;1.2
76043;PMS7003;64740;34.694;33.088;2023-11-21T08:26:31;2.8;2.2;1.2
76043;PMS7003;64740;34.694;33.088;2023-11-21T08:31:51;3.2;2.4;1.1
76043;PMS7003;64740;34.694;33.088;2023-11-21T08:36:41;2.5;2.1;1
76043;PMS7003;64740;34.694;33.088;2023-11-21T08:41:49;3.1;2.4;1.1
76043;PMS7003;64740;34.694;33.088;2023-11-21T08:46:49;2.4;1.9;1
76043;PMS7003;64740;34.694;33.088;2023-11-21T08:51:23;2.2;1.7;0.9
76043;PMS7003;64740;34.694;33.088;2023-11-21T08:56:33;2.3;1.9;1.1
76043;PMS7003;64740;34.694;33.088;2023-11-21T09:01:15;2.1;1.8;1.1
76043;PMS7003;64740;34.694;33.088;2023-11-21T09:06:15;3.5;2.1;1.1
76043;PMS7003;64740;34.694;33.088;2023-11-21T09:11:47;2.1;1.7;0.8
76043;PMS7003;64740;34.694;33.088;2023-11-21T09:16:27;2.4;1.8;0.9
76043;PMS7003;64740;34.694;33.088;2023-11-21T09:21:51;2.5;2.1;0.8
76043;PMS7003;64740;34.694;33.088;2023-11-21T09:26:41;2.6;1.8;0.9
76043;PMS7003;64740;34.694;33.088;2023-11-21T09:31:49;2.8;2.1;1
76043;PMS7003;64740;34.694;33.088;2023-11-21T09:36:49;2.5;1.6;0.8
76043;PMS7003;64740;34.694;33.088;2023-11-21T09:41:17;2.2;1.8;0.9
76043;PMS7003;64740;34.694;33.088;2023-11-21T09:46:37;2.6;1.7;0.8
76043;PMS7003;64740;34.694;33.088;2023-11-21T09:51:39;2.1;1.7;0.9
76043;PMS7003;64740;34.694;33.088;2023-11-21T09:56:15;2;1.4;0.7
76043;PMS7003;64740;34.694;33.088;2023-11-21T10:01:41;2.6;1.6;0.7
76043;PMS7003;64740;34.694;33.088;2023-11-21T10:06:29;2.1;1.4;0.7
76043;PMS7003;64740;34.694;33.088;2023-11-21T10:11:53;2;1.7;0.8
76043;PMS7003;64740;34.694;33.088;2023-11-21T10:16:43;2.4;1.6;0.9
76043;PMS7003;64740;34.694;33.088;2023-11-21T10:21:53;2.2;1.8;1
76043;PMS7003;64740;34.694;33.088;2023-11-21T10:26:53;1.8;1.3;0.6
76043;PMS7003;64740;34.694;33.088;2023-11-21T10:31:26;2.3;1.6;0.8
76043;PMS7003;64740;34.694;33.088;2023-11-21T10:36:53;1.8;1.5;0.8
76043;PMS7003;64740;34.694;33.088;2023-11-21T10:41:15;1.9;1.5;0.8
76043;PMS7003;64740;34.694;33.088;2023-11-21T10:46:19;2.2;1.6;0.8
76043;PMS7003;64740;34.694;33.088;2023-11-21T10:51:43;2.2;1.8;1
76043;PMS7003;64740;34.694;33.088;2023-11-21T10:56:29;2.1;1.6;0.8
76043;PMS7003;64740;34.694;33.088;2023-11-21T11:01:51;2.2;1.9;0.9
76043;PMS7003;64740;34.694;33.088;2023-11-21T11:06:53;1.8;1.6;0.7
76043;PMS7003;64740;34.694;33.088;2023-11-21T11:11:51;1.9;1.5;0.8
76043;PMS7003;64740;34.694;33.088;2023-11-21T11:16:53;1.4;1.3;0.7
76043;PMS7003;64740;34.694;33.088;2023-11-21T11:21:27;2.1;1.4;0.7
76043;PMS7003;64740;34.694;33.088;2023-11-21T11:26:39;2;1.6;0.7
76043;PMS7003;64740;34.694;33.088;2023-11-21T11:31:31;2.1;1.3;0.6
76043;PMS7003;64740;34.694;33.088;2023-11-21T11:36:16;1.6;1.4;0.8
76043;PMS7003;64740;34.694;33.088;2023-11-21T11:41:37;1.9;1.2;0.5
76043;PMS7003;64740;34.694;33.088;2023-11-21T11:46:39;1.9;1.4;0.7
76043;PMS7003;64740;34.694;33.088;2023-11-21T11:51:13;1.8;1.2;0.6
76043;PMS7003;64740;34.694;33.088;2023-11-21T11:56:41;2.5;1.6;0.7
76043;PMS7003;64740;34.694;33.088;2023-11-21T12:01:26;2;1.4;0.5
76043;PMS7003;64740;34.694;33.088;2023-11-21T12:06:51;1.9;1.4;0.7
76043;PMS7003;64740;34.694;33.088;2023-11-21T12:11:40;1.8;1.3;0.6
76043;PMS7003;64740;34.694;33.088;2023-11-21T12:16:25;1.5;1.1;0.5
76043;PMS7003;64740;34.694;33.088;2023-11-21T12:21:43;1.1;1;0.5
76043;PMS7003;64740;34.694;33.088;2023-11-21T12:26:31;1.6;1.3;0.6
76043;PMS7003;64740;34.694;33.088;2023-11-21T12:31:51;1.6;1.1;0.5
76043;PMS7003;64740;34.694;33.088;2023-11-21T12:36:17;2.5;1.4;0.6
76043;PMS7003;64740;34.694;33.088;2023-11-21T12:41:27;1.8;1.1;0.5
76043;PMS7003;64740;34.694;33.088;2023-11-21T12:46:42;2.4;1.8;0.6
76043;PMS7003;64740;34.694;33.088;2023-11-21T12:51:41;1.8;1.4;0.7
76043;PMS7003;64740;34.694;33.088;2023-11-21T12:56:51;2.6;1.7;0.7
76043;PMS7003;64740;34.694;33.088;2023-11-21T13:01:41;1.9;1.4;0.7
76043;PMS7003;64740;34.694;33.088;2023-11-21T13:06:25;2.3;1.6;0.7
76043;PMS7003;64740;34.694;33.088;2023-11-21T13:11:15;1.7;1.5;0.7
76043;PMS7003;64740;34.694;33.088;2023-11-21T13:16:29;1.9;1.6;0.9
76043;PMS7003;64740;34.694;33.088;2023-11-21T13:21:49;2.1;1.6;0.8
76043;PMS7003;64740;34.694;33.088;2023-11-21T13:26:17;2;1.6;0.7
76043;PMS7003;64740;34.694;33.088;2023-11-21T13:31:21;1.5;1.3;0.6
76043;PMS7003;64740;34.694;33.088;2023-11-21T13:36:35;2.8;2.1;1.2
76043;PMS7003;64740;34.694;33.088;2023-11-21T13:41:39;2.1;2;1.1
76043;PMS7003;64740;34.694;33.088;2023-11-21T13:46:53;2.4;1.8;0.7
76043;PMS7003;64740;34.694;33.088;2023-11-21T13:51:31;1.6;1.5;0.7
76043;PMS7003;64740;34.694;33.088;2023-11-21T13:56:15;1.7;1.5;0.6
76043;PMS7003;64740;34.694;33.088;2023-11-21T14:01:17;1.6;1.2;0.6
76043;PMS7003;64740;34.694;33.088;2023-11-21T14:06:49;2.1;1.7;0.9
76043;PMS7003;64740;34.694;33.088;2023-11-21T14:11:51;1.6;1.3;0.7
76043;PMS7003;64740;34.694;33.088;2023-11-21T14:16:31;1.5;1.4;0.7
76043;PMS7003;64740;34.694;33.088;2023-11-21T14:21:27;2;1.6;0.7
76043;PMS7003;64740;34.694;33.088;2023-11-21T14:26:43;2.4;1.8;0.8
76043;PMS7003;64740;34.694;33.088;2023-11-21T14:31:39;1.6;1.5;0.6
76043;PMS7003;64740;34.694;33.088;2023-11-21T14:36:51;2.3;1.9;1
76043;PMS7003;64740;34.694;33.088;2023-11-21T14:41:39;1.6;1.4;0.7
76043;PMS7003;64740;34.694;33.088;2023-11-21T14:46:23;2.4;2;1.1
76043;PMS7003;64740;34.694;33.088;2023-11-21T14:51:15;2.5;1.7;0.9
76043;PMS7003;64740;34.694;33.088;2023-11-21T14:56:51;2.1;1.8;0.7
76043;PMS7003;64740;34.694;33.088;2023-11-21T15:01:49;2.1;1.8;0.9
76043;PMS7003;64740;34.694;33.088;2023-11-21T15:06:41;2.5;1.9;0.9
76043;PMS7003;64740;34.694;33.088;2023-11-21T15:11:15;3.2;2;1
76043;PMS7003;64740;34.694;33.088;2023-11-21T15:16:43;2.1;1.8;1
76043;PMS7003;64740;34.694;33.088;2023-11-21T15:21:41;3.2;2.6;1.6
76043;PMS7003;64740;34.694;33.088;2023-11-21T15:26:51;5;4.3;2.7
76043;PMS7003;64740;34.694;33.088;2023-11-21T15:31:41;7.1;5.9;3.6
76043;PMS7003;64740;34.694;33.088;2023-11-21T15:36:23;14.2;10.6;6
76043;PMS7003;64740;34.694;33.088;2023-11-21T15:41:15;10.2;8.1;4.5
76043;PMS7003;64740;34.694;33.088;2023-11-21T15:46:31;8.8;6.8;4.2
76043;PMS7003;64740;34.694;33.088;2023-11-21T15:51:53;6.5;5.6;3.7
76043;PMS7003;64740;34.694;33.088;2023-11-21T15:56:43;6.1;5.4;3.4
76043;PMS7003;64740;34.694;33.088;2023-11-21T16:01:29;6.6;5.5;3.5
76043;PMS7003;64740;34.694;33.088;2023-11-21T16:06:45;6;4.8;2.9
76043;PMS7003;64740;34.694;33.088;2023-11-21T16:11:55;5.2;4.4;2.3
76043;PMS7003;64740;34.694;33.088;2023-11-21T16:16:55;5.5;4.6;2.8
76043;PMS7003;64740;34.694;33.088;2023-11-21T16:21:15;5.9;4.5;2.9
76043;PMS7003;64740;34.694;33.088;2023-11-21T16:26:17;5.3;4.3;2.5
76043;PMS7003;64740;34.694;33.088;2023-11-21T16:31:21;5.5;4.4;2.6
76043;PMS7003;64740;34.694;33.088;2023-11-21T16:36:15;5;4.5;2.8
76043;PMS7003;64740;34.694;33.088;2023-11-21T16:41:51;5.8;4.6;2.5
76043;PMS7003;64740;34.694;33.088;2023-11-21T16:46:33;5.1;4.3;2.6
76043;PMS7003;64740;34.694;33.088;2023-11-21T16:51:23;5.1;4.7;2.7
76043;PMS7003;64740;34.694;33.088;2023-11-21T16:56:27;5.4;4.5;2.5
76043;PMS7003;64740;34.694;33.088;2023-11-21T17:01:37;5.5;4.1;2.5
76043;PMS7003;64740;34.694;33.088;2023-11-21T17:06:51;5.5;4.6;2.7
76043;PMS7003;64740;34.694;33.088;2023-11-21T17:11:27;4.2;3.6;2.4
76043;PMS7003;64740;34.694;33.088;2023-11-21T17:16:15;5.6;4.8;3.1
76043;PMS7003;64740;34.694;33.088;2023-11-21T17:21:17;5.5;4.9;2.9
76043;PMS7003;64740;34.694;33.088;2023-11-21T17:26:29;6.8;5.9;3.8
76043;PMS7003;64740;34.694;33.088;2023-11-21T17:31:51;7.1;5.7;3.4
76043;PMS7003;64740;34.694;33.088;2023-11-21T17:36:41;5;4.5;2.7
76043;PMS7003;64740;34.694;33.088;2023-11-21T17:41:18;5.4;4.6;2.5
76043;PMS7003;64740;34.694;33.088;2023-11-21T17:46:31;5.7;4.9;3.2
76043;PMS7003;64740;34.694;33.088;2023-11-21T17:51:39;5.3;4.4;2.4
76043;PMS7003;64740;34.694;33.088;2023-11-21T17:56:53;4.8;4.2;2.4
76043;PMS7003;64740;34.694;33.088;2023-11-21T18:01:17;5.6;4.3;2.5
76043;PMS7003;64740;34.694;33.088;2023-11-21T18:06:17;5.6;4.7;3
76043;PMS7003;64740;34.694;33.088;2023-11-21T18:11:18;6.3;5.1;2.6
76043;PMS7003;64740;34.694;33.088;2023-11-21T18:16:29;6.3;4.9;3.1
76043;PMS7003;64740;34.694;33.088;2023-11-21T18:21:19;5.9;5.2;3.1
76043;PMS7003;64740;34.694;33.088;2023-11-21T18:26:41;5.2;4.6;2.6
76043;PMS7003;64740;34.694;33.088;2023-11-21T18:31:25;5.3;4.5;2.6
76043;PMS7003;64740;34.694;33.088;2023-11-21T18:36:43;6.7;5.4;3.2
76043;PMS7003;64740;34.694;33.088;2023-11-21T18:41:39;5.1;4.3;2.6
76043;PMS7003;64740;34.694;33.088;2023-11-21T18:46:49;5.6;4.6;2.9
76043;PMS7003;64740;34.694;33.088;2023-11-21T18:51:17;5.7;4.7;3
76043;PMS7003;64740;34.694;33.088;2023-11-21T18:56:18;4.7;4.3;2.6
76043;PMS7003;64740;34.694;33.088;2023-11-21T19:01:25;5.1;4.3;2.6
76043;PMS7003;64740;34.694;33.088;2023-11-21T19:06:27;4.7;4;2.4
76043;PMS7003;64740;34.694;33.088;2023-11-21T19:11:51;5.2;4.2;2.5
76043;PMS7003;64740;34.694;33.088;2023-11-21T19:16:29;4.4;3.7;2.3
76043;PMS7003;64740;34.694;33.088;2023-11-21T19:21:15;4.4;3.7;2.3
76043;PMS7003;64740;34.694;33.088;2023-11-21T19:26:41;4.6;4.1;2.4
76043;PMS7003;64740;34.694;33.088;2023-11-21T19:31:42;5;4.2;2.7
76043;PMS7003;64740;34.694;33.088;2023-11-21T19:36:47;4.6;3.9;2.2
76043;PMS7003;64740;34.694;33.088;2023-11-21T19:41:32;4.3;3.9;2.4
76043;PMS7003;64740;34.694;33.088;2023-11-21T19:46:17;4.9;4.2;2.1
76043;PMS7003;64740;34.694;33.088;2023-11-21T19:51:17;5.1;4;2.4
76043;PMS7003;64740;34.694;33.088;2023-11-21T19:56:15;5.4;4.3;2.5
76043;PMS7003;64740;34.694;33.088;2023-11-21T20:01:41;4.9;4.3;2.5
76043;PMS7003;64740;34.694;33.088;2023-11-21T20:06:29;4.7;4.1;2.4
76043;PMS7003;64740;34.694;33.088;2023-11-21T20:11:25;5.7;4.3;2.6
76043;PMS7003;64740;34.694;33.088;2023-11-21T20:16:25;4.1;3.5;2.2
76043;PMS7003;64740;34.694;33.088;2023-11-21T20:21:41;4.3;3.8;2.2
76043;PMS7003;64740;34.694;33.088;2023-11-21T20:26:47;4.5;4;2.4
76043;PMS7003;64740;34.694;33.088;2023-11-21T20:31:17;4.3;3.8;2.4
76043;PMS7003;64740;34.694;33.088;2023-11-21T20:36:25;4.6;3.6;2
76043;PMS7003;64740;34.694;33.088;2023-11-21T20:41:17;4.5;3.7;2.1
76043;PMS7003;64740;34.694;33.088;2023-11-21T20:46:35;3.9;3.2;1.7
76043;PMS7003;64740;34.694;33.088;2023-11-21T20:51:57;4.2;3.4;2
76043;PMS7003;64740;34.694;33.088;2023-11-21T20:56:57;4.9;4;2.2
76043;PMS7003;64740;34.694;33.088;2023-11-21T21:01:31;4.5;3.7;2.1
76043;PMS7003;64740;34.694;33.088;2023-11-21T21:06:31;4.2;3.4;2
76043;PMS7003;64740;34.694;33.088;2023-11-21T21:11:43;4.5;3.5;2.2
76043;PMS7003;64740;34.694;33.088;2023-11-21T21:21:17;4.2;3.3;1.9
76043;PMS7003;64740;34.694;33.088;2023-11-21T21:26:29;3.7;2.9;1.7
76043;PMS7003;64740;34.694;33.088;2023-11-21T21:31:19;4;3.5;2.3
76043;PMS7003;64740;34.694;33.088;2023-11-21T21:36:31;4;3;1.9
76043;PMS7003;64740;34.694;33.088;2023-11-21T21:41:55;4;3.7;1.8
76043;PMS7003;64740;34.694;33.088;2023-11-21T21:46:47;3.4;3;1.9
76043;PMS7003;64740;34.694;33.088;2023-11-21T21:51:17;3.4;3;1.8
76043;PMS7003;64740;34.694;33.088;2023-11-21T21:56:47;4.1;3.6;2
76043;PMS7003;64740;34.694;33.088;2023-11-21T22:01:57;6;4.9;2.8
76043;PMS7003;64740;34.694;33.088;2023-11-21T22:06:19;4.1;3.3;1.8
76043;PMS7003;64740;34.694;33.088;2023-11-21T22:11:25;3.9;3.2;1.9
76043;PMS7003;64740;34.694;33.088;2023-11-21T22:16:17;3.4;2.9;1.8
76043;PMS7003;64740;34.694;33.088;2023-11-21T22:21:29;3.7;3.3;2
76043;PMS7003;64740;34.694;33.088;2023-11-21T22:26:43;4.3;3.4;1.8
76043;PMS7003;64740;34.694;33.088;2023-11-21T22:31:53;3.3;3.1;1.6
76043;PMS7003;64740;34.694;33.088;2023-11-21T22:36:43;3.9;3.3;2
76043;PMS7003;64740;34.694;33.088;2023-11-21T22:41:22;3.2;2.7;1.6
76043;PMS7003;64740;34.694;33.088;2023-11-21T22:46:43;3.4;3;1.8
76043;PMS7003;64740;34.694;33.088;2023-11-21T22:51:43;3.1;2.8;1.8
76043;PMS7003;64740;34.694;33.088;2023-11-21T22:56:55;3;2.7;1.6
76043;PMS7003;64740;34.694;33.088;2023-11-21T23:01:27;3.6;2.9;1.8
76043;PMS7003;64740;34.694;33.088;2023-11-21T23:06:20;3.9;3;1.9
76043;PMS7003;64740;34.694;33.088;2023-11-21T23:11:17;4.7;3.9;2.3
76043;PMS7003;64740;34.694;33.088;2023-11-21T23:16:33;4.8;3.8;2.2
76043;PMS7003;64740;34.694;33.088;2023-11-21T23:21:55;3.8;3.1;1.5
76043;PMS7003;64740;34.694;33.088;2023-11-21T23:26:43;3.2;2.7;1.5
76043;PMS7003;64740;34.694;33.088;2023-11-21T23:31:19;4;3;1.8
76043;PMS7003;64740;34.694;33.088;2023-11-21T23:36:45;3.1;2.5;1.5
76043;PMS7003;64740;34.694;33.088;2023-11-21T23:41:43;3.6;2.7;1.7
76043;PMS7003;64740;34.694;33.088;2023-11-21T23:46:55;3;2.8;1.5
76043;PMS7003;64740;34.694;33.088;2023-11-21T23:51:19;3.1;2.7;1.5
76043;PMS7003;64740;34.694;33.088;2023-11-21T23:56:19;2.9;2.3;1.6
